Time;durP1;ratioP1;P1;durP2;ratioP2;P2;SDS_P1;SDS_P2;PMS_P1;PMS_P2;Temp;Humidity;BMP_temperature;BMP_pressure;BME280_temperature;BME280_humidity;BME280_pressure;Samples;Min_cycle;Max_cycle;Signal;HPM_P1;HPM_P2
2022/03/31 05:01:18;;;;;;;18.70;12.00;;;7.50;99.90;;;;;;5573661;23;20702;-85
2022/03/31 05:03:45;;;;;;;18.83;11.60;;;7.40;99.90;;;;;;4998408;28;20325;-85
2022/03/31 05:06:12;;;;;;;16.90;11.25;;;7.40;99.90;;;;;;5004871;28;20050;-83
2022/03/31 05:08:39;;;;;;;18.20;11.23;;;7.40;99.90;;;;;;5002857;28;20050;-85
2022/03/31 05:11:06;;;;;;;18.15;11.32;;;7.40;99.90;;;;;;4998527;28;20082;-84
2022/03/31 05:13:33;;;;;;;16.63;10.77;;;7.40;99.90;;;;;;4997872;28;20070;-84
2022/03/31 05:16:02;;;;;;;16.30;11.10;;;7.40;99.90;;;;;;4995823;28;20491;-83
2022/03/31 05:18:31;;;;;;;16.38;11.07;;;7.40;99.90;;;;;;4977989;28;20090;-84
2022/03/31 05:20:58;;;;;;;17.65;11.48;;;7.30;99.90;;;;;;4960751;28;20057;-84
2022/03/31 05:23:25;;;;;;;16.60;11.50;;;7.30;99.90;;;;;;4960907;28;20543;-83
2022/03/31 05:25:52;;;;;;;21.17;13.23;;;7.30;99.90;;;;;;4993400;28;20077;-84
2022/03/31 05:28:19;;;;;;;17.75;11.68;;;7.10;99.90;;;;;;4986508;28;20043;-84
2022/03/31 05:30:46;;;;;;;17.33;10.80;;;7.20;99.90;;;;;;4977743;28;20046;-85
2022/03/31 05:33:13;;;;;;;19.08;11.82;;;7.30;99.90;;;;;;4980195;28;20053;-84
2022/03/31 05:35:42;;;;;;;19.05;12.90;;;7.40;99.90;;;;;;4978197;28;20056;-85
2022/03/31 05:38:09;;;;;;;17.90;12.05;;;7.30;99.90;;;;;;4962426;28;20053;-84
2022/03/31 05:40:36;;;;;;;17.13;11.07;;;7.40;99.90;;;;;;4979261;28;20143;-83
2022/03/31 05:43:04;;;;;;;18.08;11.23;;;7.40;99.90;;;;;;4979254;28;20114;-83
2022/03/31 05:45:31;;;;;;;16.05;11.00;;;7.40;99.90;;;;;;4979312;28;20138;-83
2022/03/31 05:47:58;;;;;;;18.83;12.32;;;7.40;99.90;;;;;;4978926;28;20555;-85
2022/03/31 05:50:25;;;;;;;19.42;12.32;;;7.40;99.90;;;;;;4980428;28;20137;-84
2022/03/31 05:52:54;;;;;;;17.67;12.10;;;7.30;99.90;;;;;;4993521;28;20078;-85
2022/03/31 05:55:22;;;;;;;19.45;12.13;;;7.30;99.90;;;;;;4976667;28;20110;-86
2022/03/31 05:57:49;;;;;;;20.42;12.25;;;7.30;99.90;;;;;;4992759;28;20115;-83
2022/03/31 06:00:20;;;;;;;18.38;12.45;;;7.10;99.90;;;;;;4990383;28;20078;-85
2022/03/31 06:02:47;;;;;;;20.73;12.57;;;7.10;99.90;;;;;;4989917;28;20575;-84
2022/03/31 06:05:15;;;;;;;19.02;12.30;;;7.00;99.90;;;;;;4988873;28;20066;-84
2022/03/31 06:07:43;;;;;;;18.55;11.98;;;7.00;99.90;;;;;;4993754;28;20050;-84
2022/03/31 06:10:12;;;;;;;18.80;12.07;;;7.00;99.90;;;;;;4997790;28;20046;-84
2022/03/31 06:12:39;;;;;;;19.23;12.88;;;7.00;99.90;;;;;;4996618;28;20381;-83
2022/03/31 06:15:08;;;;;;;21.48;13.27;;;7.00;99.90;;;;;;4979682;28;20062;-84
2022/03/31 06:17:37;;;;;;;20.05;12.93;;;7.00;99.90;;;;;;4978364;28;20495;-84
2022/03/31 06:20:05;;;;;;;20.70;12.73;;;7.20;99.90;;;;;;4977768;28;20584;-83
2022/03/31 06:22:32;;;;;;;21.70;12.93;;;7.10;99.90;;;;;;4977274;28;20051;-83
2022/03/31 06:25:00;;;;;;;19.50;12.25;;;7.10;99.90;;;;;;4977433;28;20057;-83
2022/03/31 06:27:28;;;;;;;22.13;13.40;;;7.10;99.90;;;;;;4992996;28;20502;-84
2022/03/31 06:29:55;;;;;;;26.90;13.57;;;7.10;99.90;;;;;;4976820;28;20043;-84
2022/03/31 06:32:22;;;;;;;23.13;13.25;;;6.90;99.90;;;;;;4977045;28;20085;-84
2022/03/31 06:34:50;;;;;;;22.25;13.80;;;6.90;99.90;;;;;;4976971;28;20055;-85
2022/03/31 06:37:17;;;;;;;23.60;14.43;;;6.90;99.90;;;;;;4973778;28;20516;-84
2022/03/31 06:39:44;;;;;;;20.73;12.80;;;6.80;99.90;;;;;;4995791;28;20046;-84
2022/03/31 06:42:11;;;;;;;20.92;13.13;;;6.80;99.90;;;;;;4990649;28;20510;-84
2022/03/31 06:44:40;;;;;;;20.17;12.70;;;6.80;99.90;;;;;;4977005;28;20059;-86
2022/03/31 06:47:07;;;;;;;19.15;12.27;;;6.90;99.90;;;;;;4980031;28;20141;-84
2022/03/31 06:49:35;;;;;;;19.65;13.13;;;6.90;99.90;;;;;;4991108;28;20137;-82
2022/03/31 06:52:02;;;;;;;20.35;12.68;;;7.00;99.90;;;;;;4958895;28;20047;-83
2022/03/31 06:54:30;;;;;;;20.50;13.23;;;6.70;99.90;;;;;;4976494;28;20137;-84
2022/03/31 06:56:58;;;;;;;23.23;14.90;;;6.80;99.90;;;;;;4975764;28;20042;-83
2022/03/31 06:59:25;;;;;;;20.90;13.05;;;6.80;99.90;;;;;;4975788;28;20057;-83
2022/03/31 07:01:53;;;;;;;19.30;12.82;;;6.80;99.90;;;;;;4975880;28;20055;-84
2022/03/31 07:04:20;;;;;;;19.27;12.98;;;7.00;99.90;;;;;;4976135;28;20109;-83
2022/03/31 07:06:48;;;;;;;22.48;13.70;;;6.90;99.90;;;;;;4968511;28;20149;-83
2022/03/31 07:09:16;;;;;;;21.65;14.13;;;6.80;99.90;;;;;;4975758;28;20499;-84
2022/03/31 07:11:43;;;;;;;19.88;12.82;;;6.80;99.90;;;;;;4993472;28;20054;-84
2022/03/31 07:14:11;;;;;;;20.70;13.77;;;6.90;99.90;;;;;;4993017;28;20050;-83
2022/03/31 07:16:38;;;;;;;20.75;13.20;;;7.00;99.90;;;;;;4993816;28;20081;-83
2022/03/31 07:19:07;;;;;;;21.50;12.85;;;6.90;99.90;;;;;;4994250;28;20062;-85
2022/03/31 07:21:34;;;;;;;20.90;13.27;;;7.00;99.90;;;;;;4992983;28;20769;-84
2022/03/31 07:24:02;;;;;;;24.63;15.38;;;7.00;99.90;;;;;;4992610;28;20065;-82
2022/03/31 07:26:30;;;;;;;25.98;15.98;;;7.00;99.90;;;;;;4990425;28;20046;-82
2022/03/31 07:28:57;;;;;;;24.85;15.25;;;6.80;99.90;;;;;;4992313;28;20058;-83
2022/03/31 07:31:25;;;;;;;22.70;13.90;;;6.80;99.90;;;;;;4991664;28;20566;-83
2022/03/31 07:33:52;;;;;;;24.25;15.43;;;7.10;99.90;;;;;;4991941;28;20056;-82
2022/03/31 07:36:20;;;;;;;24.33;15.60;;;6.90;99.90;;;;;;4985391;28;20054;-83
2022/03/31 07:38:47;;;;;;;26.27;16.48;;;6.90;99.90;;;;;;4973200;28;20150;-82
2022/03/31 07:41:16;;;;;;;26.80;16.25;;;6.90;99.90;;;;;;4972582;28;20145;-84
2022/03/31 07:43:44;;;;;;;25.10;15.25;;;7.00;99.90;;;;;;4969890;28;20057;-82
2022/03/31 07:46:12;;;;;;;21.20;13.50;;;7.10;99.90;;;;;;4972527;28;20237;-81
2022/03/31 07:48:39;;;;;;;21.20;13.95;;;7.10;99.90;;;;;;4972966;28;20061;-81
2022/03/31 07:51:06;;;;;;;21.95;14.20;;;7.10;99.90;;;;;;4973006;28;20058;-83
2022/03/31 07:53:35;;;;;;;22.90;14.85;;;7.20;99.90;;;;;;4973521;28;20069;-82
2022/03/31 07:56:02;;;;;;;26.27;15.75;;;7.30;99.90;;;;;;4973349;28;20070;-83
2022/03/31 07:58:30;;;;;;;22.90;15.07;;;7.10;99.90;;;;;;4974281;28;20523;-84
2022/03/31 08:00:58;;;;;;;26.50;16.02;;;7.10;99.90;;;;;;4973556;28;20540;-83
2022/03/31 08:03:26;;;;;;;32.63;19.70;;;7.20;99.90;;;;;;4976629;28;20796;-82
2022/03/31 08:05:54;;;;;;;32.50;19.55;;;7.00;99.90;;;;;;4993130;28;20096;-83
2022/03/31 08:08:21;;;;;;;31.45;19.35;;;7.00;99.90;;;;;;4976069;28;20050;-83
2022/03/31 08:10:51;;;;;;;31.67;18.45;;;7.00;99.90;;;;;;4974239;28;20123;-83
2022/03/31 08:13:25;;;;;;;30.15;17.75;;;7.20;99.90;;;;;;4975439;28;20055;-83
2022/03/31 08:15:54;;;;;;;25.05;16.23;;;7.30;99.90;;;;;;4974334;28;20412;-82
2022/03/31 08:18:28;;;;;;;28.88;18.20;;;7.30;99.90;;;;;;4973577;28;20070;-82
2022/03/31 08:20:55;;;;;;;25.92;17.35;;;7.30;99.90;;;;;;4976665;28;20054;-86
2022/03/31 08:23:22;;;;;;;28.17;17.08;;;7.20;99.90;;;;;;4975747;28;20134;-83
2022/03/31 08:25:50;;;;;;;29.35;18.58;;;7.30;99.90;;;;;;4974494;28;20070;-81
2022/03/31 08:28:18;;;;;;;30.58;18.23;;;7.20;99.90;;;;;;4976230;28;20141;-82
2022/03/31 08:30:45;;;;;;;27.60;17.77;;;7.10;99.90;;;;;;4975749;28;20575;-82
2022/03/31 08:33:12;;;;;;;24.88;15.95;;;7.40;99.90;;;;;;4975844;28;20497;-84
2022/03/31 08:35:40;;;;;;;26.25;16.40;;;7.50;99.90;;;;;;4977448;28;20054;-84
2022/03/31 08:38:07;;;;;;;27.73;16.75;;;7.40;99.90;;;;;;4983322;28;20713;-82
2022/03/31 08:40:36;;;;;;;25.08;16.27;;;7.40;99.90;;;;;;4987068;28;20243;-84
2022/03/31 08:43:05;;;;;;;27.00;17.25;;;7.40;99.90;;;;;;4998051;28;20047;-85
2022/03/31 08:45:36;;;;;;;24.90;16.25;;;7.30;99.90;;;;;;4982240;28;20097;-86
2022/03/31 08:48:05;;;;;;;24.60;15.88;;;7.40;99.90;;;;;;4961234;28;20050;-86
2022/03/31 08:50:35;;;;;;;21.60;13.77;;;7.40;99.90;;;;;;4978557;28;20081;-84
2022/03/31 08:53:03;;;;;;;21.77;14.48;;;7.50;99.90;;;;;;4977304;28;20419;-85
2022/03/31 08:55:30;;;;;;;23.30;14.63;;;7.60;99.90;;;;;;4977578;28;20054;-86
2022/03/31 08:57:57;;;;;;;24.88;14.88;;;7.60;99.90;;;;;;4978419;28;20498;-84
2022/03/31 09:00:27;;;;;;;25.00;15.57;;;7.80;99.90;;;;;;4977683;28;20051;-86
2022/03/31 09:03:00;;;;;;;23.75;15.20;;;7.90;99.90;;;;;;4979481;28;20054;-86
2022/03/31 09:05:35;;;;;;;22.55;14.15;;;7.90;99.90;;;;;;4978010;28;20098;-88
2022/03/31 09:08:05;;;;;;;23.85;14.55;;;7.90;99.90;;;;;;4977633;28;20050;-86
2022/03/31 09:10:35;;;;;;;23.23;14.43;;;7.70;99.90;;;;;;4961165;28;20137;-84
2022/03/31 09:13:04;;;;;;;22.35;13.40;;;7.70;99.90;;;;;;4978749;28;20047;-87
2022/03/31 09:15:35;;;;;;;24.67;15.93;;;7.70;99.90;;;;;;4976933;28;20050;-88
2022/03/31 09:18:02;;;;;;;31.02;17.98;;;7.90;99.90;;;;;;4992676;28;20051;-87
2022/03/31 09:20:40;;;;;;;28.95;17.67;;;7.70;99.90;;;;;;4977785;28;20061;-87
2022/03/31 09:23:14;;;;;;;26.90;16.25;;;7.70;99.90;;;;;;4977648;28;20074;-87
2022/03/31 09:25:41;;;;;;;26.08;15.88;;;7.90;99.90;;;;;;4975741;28;20150;-86
2022/03/31 09:28:17;;;;;;;24.58;15.05;;;7.90;99.90;;;;;;4976568;28;20050;-86
2022/03/31 09:30:50;;;;;;;25.55;15.05;;;8.00;99.90;;;;;;4976526;28;20043;-89
2022/03/31 09:33:32;;;;;;;24.33;14.77;;;8.00;99.90;;;;;;4994744;28;20050;-88
2022/03/31 09:36:06;;;;;;;23.77;14.63;;;7.90;99.90;;;;;;4977160;28;20068;-88
2022/03/31 09:38:35;;;;;;;25.02;14.40;;;8.00;99.90;;;;;;4977208;28;20076;-87
2022/03/31 09:41:04;;;;;;;23.50;14.38;;;8.00;99.90;;;;;;4959781;28;20105;-84
2022/03/31 09:43:41;;;;;;;25.85;15.48;;;8.10;99.90;;;;;;4977096;28;20055;-87
2022/03/31 09:46:21;;;;;;;26.15;15.25;;;8.20;99.90;;;;;;4976674;28;20054;-85
2022/03/31 09:48:50;;;;;;;28.50;16.42;;;8.30;99.90;;;;;;4975938;28;20463;-84
2022/03/31 09:51:17;;;;;;;25.50;15.40;;;8.40;99.90;;;;;;4959093;28;20055;-82
2022/03/31 09:53:44;;;;;;;26.77;16.10;;;8.40;99.90;;;;;;4975429;28;20059;-83
2022/03/31 09:56:13;;;;;;;25.42;15.73;;;8.50;99.90;;;;;;4974561;28;20066;-82
2022/03/31 09:58:44;;;;;;;27.30;16.42;;;8.60;99.90;;;;;;4974141;28;20058;-83
2022/03/31 10:01:11;;;;;;;29.80;17.77;;;8.60;99.90;;;;;;4977279;28;20066;-84
2022/03/31 10:03:41;;;;;;;31.88;18.13;;;8.50;99.90;;;;;;4977631;28;20523;-84
2022/03/31 10:06:09;;;;;;;30.27;18.30;;;8.50;99.90;;;;;;4980236;28;20055;-82
2022/03/31 10:08:39;;;;;;;31.38;19.05;;;8.60;99.90;;;;;;4974953;28;20062;-83
2022/03/31 10:11:08;;;;;;;29.90;17.70;;;8.60;99.90;;;;;;4988723;28;20396;-83
2022/03/31 10:13:43;;;;;;;28.42;17.33;;;8.80;99.90;;;;;;4994104;28;20068;-82
2022/03/31 10:16:16;;;;;;;25.80;16.20;;;8.90;99.90;;;;;;4994428;28;20050;-84
2022/03/31 10:18:47;;;;;;;32.25;18.80;;;9.10;99.90;;;;;;4994369;28;20101;-83
2022/03/31 10:21:15;;;;;;;28.65;16.95;;;9.20;99.90;;;;;;4993937;28;20360;-83
2022/03/31 10:26:36;;;;;;;26.23;15.30;;;9.30;99.90;;;;;;4992694;28;20189;-80
2022/03/31 10:29:11;;;;;;;30.75;18.58;;;9.10;99.90;;;;;;4992646;28;20058;-81
2022/03/31 10:31:41;;;;;;;27.63;16.70;;;9.00;99.90;;;;;;4954025;29;20134;-82
2022/03/31 10:34:11;;;;;;;26.35;15.93;;;8.90;99.90;;;;;;4953896;29;20047;-81
2022/03/31 10:36:43;;;;;;;25.92;16.13;;;8.80;99.90;;;;;;4959587;28;20073;-83
2022/03/31 10:39:18;;;;;;;26.80;15.52;;;8.80;99.90;;;;;;4984009;28;20077;-82
2022/03/31 10:41:46;;;;;;;28.65;16.52;;;8.90;99.90;;;;;;4972817;28;20051;-83
2022/03/31 10:44:19;;;;;;;25.30;15.80;;;9.10;99.90;;;;;;4972853;28;20062;-82
2022/03/31 10:47:00;;;;;;;23.55;15.02;;;9.30;99.90;;;;;;4972685;28;20065;-81
2022/03/31 10:49:28;;;;;;;30.98;17.60;;;9.40;99.90;;;;;;4973463;28;20137;-82
2022/03/31 10:51:56;;;;;;;30.42;17.85;;;9.30;99.90;;;;;;4973110;28;20559;-80
2022/03/31 10:54:28;;;;;;;26.75;16.00;;;9.30;99.90;;;;;;4973093;28;20419;-80
2022/03/31 10:57:08;;;;;;;26.67;16.85;;;9.60;99.90;;;;;;4972405;28;20137;-81
2022/03/31 10:59:37;;;;;;;28.38;16.77;;;9.70;99.90;;;;;;4972295;28;20513;-81
2022/03/31 11:02:10;;;;;;;28.58;17.65;;;9.40;99.90;;;;;;4970395;28;20487;-81
2022/03/31 11:04:48;;;;;;;28.90;18.38;;;9.30;99.90;;;;;;4991893;28;20061;-82
2022/03/31 11:07:20;;;;;;;32.70;19.23;;;9.30;99.90;;;;;;4974306;28;20060;-83
2022/03/31 11:09:48;;;;;;;26.45;16.58;;;9.40;99.90;;;;;;4992081;28;20057;-81
2022/03/31 11:12:26;;;;;;;28.80;17.42;;;9.30;99.90;;;;;;4993584;28;20145;-82
2022/03/31 11:14:56;;;;;;;26.27;16.55;;;9.20;99.90;;;;;;4993013;28;20042;-81
2022/03/31 11:17:23;;;;;;;25.08;16.48;;;9.30;99.90;;;;;;4993243;28;20046;-82
2022/03/31 11:19:53;;;;;;;28.45;16.33;;;9.50;99.90;;;;;;4992817;28;20081;-82
2022/03/31 11:22:22;;;;;;;31.48;19.17;;;9.50;99.90;;;;;;4993210;28;20050;-84
2022/03/31 11:24:50;;;;;;;29.75;17.92;;;9.40;99.90;;;;;;4991321;28;20104;-82
2022/03/31 11:27:30;;;;;;;27.08;16.45;;;9.40;99.90;;;;;;4989102;28;20050;-83
2022/03/31 11:30:00;;;;;;;27.85;16.40;;;9.60;99.90;;;;;;4973459;28;20061;-85
2022/03/31 11:32:32;;;;;;;29.98;18.38;;;9.80;99.90;;;;;;4972882;28;20128;-82
2022/03/31 11:35:00;;;;;;;33.05;18.48;;;9.80;99.90;;;;;;4973313;28;20050;-82
2022/03/31 11:37:27;;;;;;;30.65;18.00;;;9.70;99.90;;;;;;4973384;28;20145;-85
2022/03/31 11:39:54;;;;;;;33.70;19.75;;;9.70;99.90;;;;;;4974856;28;20054;-83
2022/03/31 11:42:22;;;;;;;32.53;20.00;;;9.70;99.90;;;;;;4975918;28;20141;-82
2022/03/31 11:44:49;;;;;;;32.08;17.88;;;9.60;99.90;;;;;;4972808;28;20058;-83
2022/03/31 11:47:22;;;;;;;32.80;18.83;;;9.70;99.90;;;;;;4974145;28;20053;-85
2022/03/31 11:50:02;;;;;;;28.92;18.10;;;9.90;99.90;;;;;;4972489;28;20046;-84
2022/03/31 11:52:31;;;;;;;27.20;17.25;;;10.00;99.90;;;;;;4988625;28;20161;-82
2022/03/31 11:55:00;;;;;;;28.30;18.73;;;10.20;99.90;;;;;;4991281;28;20057;-84
2022/03/31 11:57:29;;;;;;;29.35;17.05;;;10.20;99.90;;;;;;4997763;28;20137;-84
2022/03/31 11:59:57;;;;;;;30.88;18.58;;;10.30;99.90;;;;;;4996177;28;20060;-82
2022/03/31 12:02:24;;;;;;;28.40;17.80;;;10.40;99.90;;;;;;4993930;28;20405;-77
2022/03/31 12:04:51;;;;;;;27.02;17.33;;;10.70;99.90;;;;;;4989944;28;20151;-79
2022/03/31 12:07:20;;;;;;;31.20;18.52;;;10.90;99.90;;;;;;4974809;28;20050;-79
2022/03/31 12:09:48;;;;;;;27.80;17.30;;;11.20;99.90;;;;;;4974951;28;20058;-80
2022/03/31 12:12:17;;;;;;;24.95;16.48;;;11.30;99.90;;;;;;4974831;28;20782;-80
2022/03/31 12:14:56;;;;;;;25.63;15.70;;;11.60;99.90;;;;;;4976012;28;20325;-80
2022/03/31 12:17:23;;;;;;;26.70;17.02;;;11.80;99.90;;;;;;4975234;28;20055;-81
2022/03/31 12:19:51;;;;;;;28.27;16.20;;;11.50;99.90;;;;;;4975715;28;20051;-80
2022/03/31 12:22:31;;;;;;;22.52;15.13;;;11.30;99.90;;;;;;4974610;28;20352;-79
2022/03/31 12:24:58;;;;;;;25.60;16.35;;;11.20;99.90;;;;;;4972671;28;20496;-80
2022/03/31 12:27:27;;;;;;;25.48;15.85;;;11.20;99.90;;;;;;4975218;28;20055;-78
2022/03/31 12:30:04;;;;;;;27.77;17.33;;;11.30;99.90;;;;;;4975202;28;20046;-80
2022/03/31 12:32:33;;;;;;;27.33;17.63;;;11.40;99.90;;;;;;4975690;28;20105;-79
2022/03/31 12:35:01;;;;;;;25.35;16.13;;;11.30;99.90;;;;;;4974932;28;20054;-80
2022/03/31 12:37:33;;;;;;;25.30;16.17;;;11.30;99.90;;;;;;4975258;28;20058;-79
2022/03/31 12:40:05;;;;;;;28.05;16.60;;;11.50;99.90;;;;;;4974858;28;20514;-81
2022/03/31 12:42:33;;;;;;;24.35;15.70;;;11.60;99.90;;;;;;4979055;28;20054;-80
2022/03/31 12:44:59;;;;;;;25.60;16.08;;;11.60;99.90;;;;;;4994169;28;20056;-81
2022/03/31 12:47:28;;;;;;;22.38;15.45;;;11.50;99.90;;;;;;4981327;28;20046;-77
2022/03/31 12:49:55;;;;;;;23.88;15.18;;;11.60;99.90;;;;;;4993978;28;20088;-78
2022/03/31 12:52:23;;;;;;;25.50;15.60;;;11.80;99.90;;;;;;4984485;28;20050;-80
2022/03/31 12:54:56;;;;;;;28.55;18.33;;;11.90;99.90;;;;;;4974192;28;20082;-79
2022/03/31 12:57:26;;;;;;;24.70;15.85;;;12.00;99.90;;;;;;4974272;28;20055;-79
2022/03/31 13:00:08;;;;;;;22.25;14.38;;;12.40;99.90;;;;;;4976043;28;20052;-80
2022/03/31 13:02:35;;;;;;;22.75;14.20;;;12.60;99.90;;;;;;4974573;28;20384;-79
2022/03/31 13:05:03;;;;;;;23.92;14.57;;;12.50;99.90;;;;;;4993340;28;20145;-79
2022/03/31 13:07:30;;;;;;;22.33;14.57;;;12.00;99.90;;;;;;4993533;28;20050;-77
2022/03/31 13:10:01;;;;;;;21.70;14.05;;;12.10;99.90;;;;;;4993659;28;20054;-79
2022/03/31 13:12:31;;;;;;;22.10;14.02;;;12.10;99.90;;;;;;4993565;28;20050;-78
2022/03/31 13:15:00;;;;;;;22.27;14.75;;;12.00;99.90;;;;;;4993707;28;20055;-77
2022/03/31 13:17:28;;;;;;;20.92;13.75;;;12.00;99.90;;;;;;4993820;28;20074;-79
2022/03/31 13:19:55;;;;;;;21.58;13.25;;;11.90;99.90;;;;;;4993170;28;20053;-77
2022/03/31 13:22:24;;;;;;;20.27;12.38;;;11.70;99.90;;;;;;4993407;28;20050;-79
2022/03/31 13:24:52;;;;;;;19.13;12.82;;;11.80;99.90;;;;;;4991439;28;20073;-78
2022/03/31 13:27:21;;;;;;;17.48;11.52;;;12.00;99.90;;;;;;4992766;28;20077;-79
2022/03/31 13:29:49;;;;;;;20.60;11.88;;;12.00;99.90;;;;;;4954685;29;20053;-77
2022/03/31 13:32:17;;;;;;;18.15;11.35;;;12.10;99.90;;;;;;4954245;29;20065;-79
2022/03/31 13:34:46;;;;;;;18.17;11.65;;;12.20;99.90;;;;;;4954581;29;20129;-80
2022/03/31 13:37:16;;;;;;;18.75;12.25;;;11.90;99.90;;;;;;4953964;29;20420;-78
2022/03/31 13:39:44;;;;;;;18.42;11.30;;;11.90;99.90;;;;;;4954115;29;20062;-77
2022/03/31 13:42:12;;;;;;;19.05;10.88;;;12.00;99.90;;;;;;4953927;29;20061;-79
2022/03/31 13:44:42;;;;;;;18.08;11.30;;;11.90;99.90;;;;;;4954293;29;20531;-79
2022/03/31 13:47:10;;;;;;;16.08;10.40;;;11.90;99.90;;;;;;4954463;29;20055;-79
2022/03/31 13:49:38;;;;;;;20.20;12.60;;;12.00;99.90;;;;;;4954068;29;20059;-78
2022/03/31 13:52:07;;;;;;;19.00;11.95;;;11.80;99.90;;;;;;4954218;29;20102;-79
2022/03/31 13:54:37;;;;;;;17.55;11.30;;;11.90;99.90;;;;;;4954034;29;20170;-78
2022/03/31 13:57:05;;;;;;;18.73;11.70;;;11.90;99.90;;;;;;4971192;28;20053;-77
2022/03/31 14:02:19;;;;;;;24.05;15.18;;;11.60;99.90;;;;;;4972565;28;20428;-79
2022/03/31 14:04:46;;;;;;;21.00;14.15;;;11.00;99.90;;;;;;4972704;28;20492;-80
2022/03/31 14:07:13;;;;;;;25.35;16.42;;;11.10;99.90;;;;;;4972814;28;20714;-77
2022/03/31 14:09:40;;;;;;;25.17;16.02;;;11.30;99.90;;;;;;4972916;28;20097;-78
2022/03/31 14:12:09;;;;;;;24.55;14.90;;;10.80;99.90;;;;;;4973216;28;20482;-83
2022/03/31 14:14:36;;;;;;;24.55;16.40;;;10.90;99.90;;;;;;4975894;28;20057;-84
2022/03/31 14:17:04;;;;;;;25.33;16.15;;;10.50;99.90;;;;;;4975756;28;20421;-83
2022/03/31 14:19:34;;;;;;;26.08;16.95;;;10.60;99.90;;;;;;4975880;28;20053;-83
2022/03/31 14:22:05;;;;;;;22.65;15.45;;;10.50;99.90;;;;;;4975670;28;20050;-83
2022/03/31 14:24:34;;;;;;;24.65;15.60;;;10.50;99.90;;;;;;4973832;28;20061;-83
2022/03/31 14:27:03;;;;;;;25.90;16.65;;;10.50;99.90;;;;;;4975810;28;20054;-83
2022/03/31 14:29:31;;;;;;;23.20;16.00;;;10.50;99.90;;;;;;4976817;28;20054;-84
2022/03/31 14:31:59;;;;;;;24.40;16.58;;;10.50;99.90;;;;;;4976041;28;20054;-84
2022/03/31 14:34:26;;;;;;;23.42;16.02;;;10.60;99.90;;;;;;4974917;28;20150;-83
2022/03/31 14:36:56;;;;;;;25.50;16.40;;;10.50;99.90;;;;;;4975507;28;20138;-84
2022/03/31 14:39:24;;;;;;;22.75;15.10;;;10.70;99.90;;;;;;4975541;28;20086;-84
2022/03/31 14:41:53;;;;;;;22.40;15.25;;;10.90;99.90;;;;;;4974913;28;20047;-83
2022/03/31 14:44:24;;;;;;;23.67;16.15;;;11.00;99.90;;;;;;4974922;28;20477;-84
2022/03/31 14:46:51;;;;;;;23.55;15.48;;;10.90;99.90;;;;;;4976056;28;20059;-84
2022/03/31 14:49:19;;;;;;;24.85;16.50;;;10.80;99.90;;;;;;4975509;28;20049;-83
2022/03/31 14:51:47;;;;;;;25.63;15.95;;;10.80;99.90;;;;;;4974410;28;20058;-84
2022/03/31 14:54:27;;;;;;;24.58;16.02;;;10.80;99.90;;;;;;4958113;28;20410;-92
2022/03/31 14:56:54;;;;;;;25.10;15.75;;;10.50;99.90;;;;;;4973584;28;20059;-91
2022/03/31 14:59:25;;;;;;;22.55;15.77;;;10.50;99.90;;;;;;4954914;28;20078;-91
2022/03/31 15:01:53;;;;;;;25.15;16.75;;;10.50;99.90;;;;;;4963900;28;20063;-89
2022/03/31 15:07:13;;;;;;;25.10;16.35;;;10.60;99.90;;;;;;4976599;28;20492;-89
2022/03/31 15:15:20;;;;;;;24.60;16.08;;;10.50;99.90;;;;;;4967153;28;20050;-92
2022/03/31 15:17:48;;;;;;;23.55;15.25;;;10.40;99.90;;;;;;4953121;28;20117;-92
2022/03/31 15:20:16;;;;;;;24.42;15.80;;;10.50;99.90;;;;;;4961871;28;20044;-90
2022/03/31 15:25:26;;;;;;;22.80;14.95;;;10.30;99.90;;;;;;4963328;28;20061;-89
2022/03/31 15:27:54;;;;;;;23.60;15.23;;;10.20;99.90;;;;;;4968728;28;20146;-87
2022/03/31 15:30:22;;;;;;;24.77;15.93;;;10.30;99.90;;;;;;4975708;28;20137;-89
2022/03/31 15:32:50;;;;;;;26.17;16.60;;;10.10;99.90;;;;;;4971826;28;20046;-87
2022/03/31 15:35:18;;;;;;;25.17;16.92;;;9.90;99.90;;;;;;4959691;28;20050;-86
2022/03/31 15:37:45;;;;;;;24.13;16.17;;;9.90;99.90;;;;;;4962709;28;20053;-88
2022/03/31 15:40:13;;;;;;;25.50;16.42;;;10.00;99.90;;;;;;4975091;28;20093;-85
2022/03/31 15:42:42;;;;;;;25.88;17.23;;;10.00;99.90;;;;;;4965996;28;20046;-84
2022/03/31 15:45:10;;;;;;;24.98;16.73;;;9.90;99.90;;;;;;4963621;28;20134;-86
2022/03/31 15:47:37;;;;;;;27.92;17.20;;;9.70;99.90;;;;;;4956863;28;20050;-86
2022/03/31 15:50:06;;;;;;;27.17;17.42;;;9.70;99.90;;;;;;4977718;28;20405;-86
2022/03/31 15:52:34;;;;;;;27.52;17.23;;;9.60;99.90;;;;;;4966856;28;20050;-86
2022/03/31 15:55:01;;;;;;;28.80;17.10;;;9.50;99.90;;;;;;4969867;28;20118;-87
2022/03/31 15:57:29;;;;;;;27.23;16.92;;;9.50;99.90;;;;;;4973304;28;20043;-86
2022/03/31 15:59:58;;;;;;;28.17;17.55;;;9.50;99.90;;;;;;4949431;28;20051;-86
2022/03/31 16:02:27;;;;;;;28.25;17.75;;;9.30;99.90;;;;;;4966485;28;20146;-86
2022/03/31 16:04:54;;;;;;;31.33;17.95;;;9.20;99.90;;;;;;4964761;28;20051;-87
2022/03/31 16:07:21;;;;;;;29.20;17.52;;;9.10;99.90;;;;;;4961001;28;20062;-87
2022/03/31 16:09:48;;;;;;;26.90;17.60;;;9.20;99.90;;;;;;4971636;28;20110;-87
2022/03/31 16:12:16;;;;;;;27.92;16.58;;;9.20;99.90;;;;;;4960871;28;20051;-87
2022/03/31 16:14:44;;;;;;;28.15;17.02;;;9.30;99.90;;;;;;4957683;28;20082;-85
2022/03/31 16:17:14;;;;;;;28.92;18.35;;;9.20;99.90;;;;;;4956475;28;20771;-87
2022/03/31 16:19:41;;;;;;;28.02;16.83;;;9.20;99.90;;;;;;4960098;28;20081;-84
2022/03/31 16:22:08;;;;;;;26.63;15.90;;;9.30;99.90;;;;;;4945078;29;20050;-85
2022/03/31 16:24:36;;;;;;;27.88;16.35;;;9.30;99.90;;;;;;4955721;29;20082;-85
2022/03/31 16:27:04;;;;;;;26.90;17.17;;;9.40;99.90;;;;;;4967690;28;20133;-91
2022/03/31 16:29:31;;;;;;;29.30;17.95;;;9.20;99.90;;;;;;4964228;28;20044;-91
2022/03/31 16:32:00;;;;;;;28.58;17.13;;;9.00;99.90;;;;;;4965735;28;20050;-90
2022/03/31 16:34:29;;;;;;;29.13;18.50;;;9.10;99.90;;;;;;4949542;28;20047;-92
2022/03/31 16:36:58;;;;;;;26.63;16.80;;;9.10;99.90;;;;;;4943127;29;20047;-92
2022/03/31 16:39:25;;;;;;;26.73;17.08;;;9.10;99.90;;;;;;4974495;28;20098;-91
2022/03/31 16:41:53;;;;;;;25.20;16.23;;;9.00;99.90;;;;;;4985504;28;20061;-92
2022/03/31 16:44:21;;;;;;;30.13;18.98;;;9.10;99.90;;;;;;4974331;28;20070;-92
2022/03/31 16:46:49;;;;;;;27.70;17.00;;;8.90;99.90;;;;;;4988204;28;20473;-89
2022/03/31 16:49:17;;;;;;;28.13;17.83;;;8.90;99.90;;;;;;4964067;28;20049;-91
2022/03/31 16:51:45;;;;;;;33.53;19.77;;;8.80;99.90;;;;;;4970839;28;20054;-91
2022/03/31 16:54:15;;;;;;;29.35;18.63;;;8.90;99.90;;;;;;4945787;28;20047;-90
2022/03/31 16:56:43;;;;;;;27.77;17.25;;;8.90;99.90;;;;;;4974887;28;20093;-89
2022/03/31 16:59:10;;;;;;;27.17;17.00;;;8.70;99.90;;;;;;4976602;28;20110;-89
2022/03/31 17:01:37;;;;;;;29.95;17.67;;;8.80;99.90;;;;;;4966431;28;20047;-92
2022/03/31 17:04:05;;;;;;;28.77;16.77;;;8.70;99.90;;;;;;4948781;28;20051;-90
2022/03/31 17:06:32;;;;;;;28.17;17.83;;;8.80;99.90;;;;;;4947055;28;20050;-87
2022/03/31 17:09:01;;;;;;;28.90;18.05;;;8.70;99.90;;;;;;4990813;28;20043;-88
2022/03/31 17:11:29;;;;;;;29.90;18.50;;;8.60;99.90;;;;;;4988774;28;20047;-91
2022/03/31 17:13:56;;;;;;;29.95;18.38;;;8.60;99.90;;;;;;4951220;28;20131;-85
2022/03/31 17:16:24;;;;;;;27.63;17.75;;;8.70;99.90;;;;;;4973968;28;20074;-88
2022/03/31 17:18:51;;;;;;;32.83;20.15;;;8.70;99.90;;;;;;4966307;28;20481;-84
2022/03/31 17:21:19;;;;;;;29.77;18.25;;;8.30;99.90;;;;;;4980144;28;20393;-90
2022/03/31 17:23:49;;;;;;;28.17;18.42;;;8.50;99.90;;;;;;4983382;28;20057;-84
2022/03/31 17:26:18;;;;;;;27.08;16.90;;;8.50;99.90;;;;;;4980401;28;20050;-88
2022/03/31 17:28:48;;;;;;;27.05;16.85;;;8.60;99.90;;;;;;4993664;28;20146;-89
2022/03/31 17:31:15;;;;;;;28.05;17.63;;;8.50;99.90;;;;;;4985690;28;20055;-87
2022/03/31 17:33:45;;;;;;;29.85;17.77;;;8.50;99.90;;;;;;4996651;28;20131;-90
2022/03/31 17:36:14;;;;;;;29.20;17.58;;;8.40;99.90;;;;;;4985372;28;20049;-92
2022/03/31 17:38:41;;;;;;;26.38;16.70;;;8.50;99.90;;;;;;4981668;28;20050;-88
2022/03/31 17:41:08;;;;;;;25.33;15.80;;;8.60;99.90;;;;;;4989490;28;20050;-90
2022/03/31 17:43:37;;;;;;;26.73;17.30;;;8.70;99.90;;;;;;4984140;28;20157;-88
2022/03/31 17:46:04;;;;;;;28.45;16.95;;;8.50;99.90;;;;;;4974792;28;20565;-87
2022/03/31 17:48:32;;;;;;;28.73;17.23;;;8.50;99.90;;;;;;4991287;28;20070;-90
2022/03/31 17:50:59;;;;;;;28.73;17.80;;;8.60;99.90;;;;;;5001953;28;20054;-91
2022/03/31 17:53:27;;;;;;;27.98;17.92;;;8.40;99.90;;;;;;4989209;28;20583;-90
2022/03/31 17:55:54;;;;;;;30.52;17.85;;;8.50;99.90;;;;;;4969971;28;20057;-85
2022/03/31 17:58:21;;;;;;;26.40;17.20;;;8.40;99.90;;;;;;4982611;28;20053;-87